Time;durP1;ratioP1;P1;durP2;ratioP2;P2;SDS_P1;SDS_P2;PMS_P1;PMS_P2;Temp;Humidity;BMP_temperature;BMP_pressure;BME280_temperature;BME280_humidity;BME280_pressure;Samples;Min_cycle;Max_cycle;Signal;HPM_P1;HPM_P2
2022/08/19 00:03:08;;;;;;;12.10;10.90;;;;;;;20.83;71.49;99361.97;214013;1277;140835;-68
2022/08/19 00:08:16;;;;;;;12.30;10.00;;;;;;;20.81;71.36;99359.85;213713;1277;142645;-66
2022/08/19 00:13:20;;;;;;;10.80;8.60;;;;;;;20.81;71.43;99350.92;212867;1277;141236;-66
2022/08/19 00:18:24;;;;;;;11.20;9.70;;;;;;;20.82;71.48;99345.35;214322;1277;140897;-66
2022/08/19 00:23:28;;;;;;;11.80;10.70;;;;;;;20.81;71.44;99343.22;212900;1277;141615;-66
2022/08/19 00:28:33;;;;;;;11.80;10.70;;;;;;;20.76;71.38;99339.65;213592;1277;140272;-67
2022/08/19 00:33:38;;;;;;;11.60;10.40;;;;;;;20.72;71.35;99340.90;213333;1277;142151;-68
2022/08/19 00:38:43;;;;;;;11.70;10.30;;;;;;;20.70;71.55;99341.42;213807;1277;141782;-68
2022/08/19 00:44:10;;;;;;;11.60;10.10;;;;;;;20.68;71.60;99340.23;214423;1277;141177;-67
2022/08/19 00:49:29;;;;;;;11.90;10.70;;;;;;;20.64;71.70;99351.23;212752;1279;141524;-67
2022/08/19 00:54:36;;;;;;;12.10;10.90;;;;;;;20.58;71.60;99352.95;215732;1277;141653;-68
2022/08/19 00:59:45;;;;;;;14.80;11.10;;;;;;;20.55;71.62;99363.37;213244;1277;142025;-68
2022/08/19 01:05:14;;;;;;;13.60;10.10;;;;;;;20.45;71.54;99363.29;213495;1277;140488;-68
2022/08/19 01:10:26;;;;;;;9.30;8.50;;;;;;;20.32;71.57;99357.41;215244;1277;141885;-68
2022/08/19 01:15:45;;;;;;;10.20;9.20;;;;;;;20.18;71.40;99354.21;215522;1277;141894;-67
2022/08/19 01:20:51;;;;;;;18.50;9.90;;;;;;;20.02;71.54;99348.70;215505;1277;141151;-67
2022/08/19 01:25:56;;;;;;;10.30;9.20;;;;;;;19.97;71.75;99338.10;215558;1277;140899;-67
2022/08/19 01:31:01;;;;;;;11.20;9.80;;;;;;;19.86;71.63;99329.39;214647;1277;140584;-67
2022/08/19 01:36:15;;;;;;;11.60;9.30;;;;;;;19.79;71.92;99320.56;213174;1277;141074;-67
2022/08/19 01:41:19;;;;;;;11.60;9.50;;;;;;;19.80;72.05;99308.86;214156;1275;140783;-67
2022/08/19 01:46:23;;;;;;;13.80;10.10;;;;;;;19.75;72.28;99305.83;212264;1279;1828760;-67
2022/08/19 01:51:28;;;;;;;12.90;11.60;;;;;;;19.71;72.47;99306.30;213345;1277;141554;-69
2022/08/19 01:56:41;;;;;;;15.10;10.30;;;;;;;19.69;72.63;99300.01;214898;1277;140850;-68
2022/08/19 02:01:45;;;;;;;10.20;9.20;;;;;;;19.59;72.52;99302.37;214041;1277;140807;-67
2022/08/19 02:06:49;;;;;;;10.10;8.50;;;;;;;19.52;72.58;99293.42;213899;1277;140999;-68
2022/08/19 02:11:53;;;;;;;11.80;10.70;;;;;;;19.46;72.72;99291.00;214003;1277;140859;-68
2022/08/19 02:16:59;;;;;;;12.30;11.00;;;;;;;19.44;72.92;99293.90;212879;1277;140884;-69
2022/08/19 02:22:03;;;;;;;14.10;12.10;;;;;;;19.46;73.57;99291.64;212414;1277;140912;-68
2022/08/19 02:27:07;;;;;;;20.00;10.40;;;;;;;19.51;73.86;99289.67;212772;1279;141090;-68
2022/08/19 02:32:11;;;;;;;13.00;11.70;;;;;;;19.61;74.45;99290.41;213675;1277;141402;-67
2022/08/19 02:42:40;;;;;;;14.10;12.30;;;;;;;19.99;75.02;99273.13;213557;1277;140797;-67
2022/08/19 02:47:44;;;;;;;14.20;11.50;;;;;;;20.16;74.72;99268.34;214386;1277;140771;-68
2022/08/19 02:52:48;;;;;;;14.80;11.30;;;;;;;20.25;74.55;99260.13;214568;1277;140375;-66
2022/08/19 02:57:51;;;;;;;17.20;11.30;;;;;;;20.32;74.59;99259.05;214617;1277;141887;-67
2022/08/19 03:02:55;;;;;;;13.50;11.10;;;;;;;20.44;74.39;99257.99;215409;1276;142910;-66
2022/08/19 03:08:00;;;;;;;12.00;10.30;;;;;;;20.56;74.34;99252.32;215002;1278;142654;-66
2022/08/19 03:13:04;;;;;;;13.90;11.20;;;;;;;20.65;74.14;99254.95;215623;1277;141547;-66
2022/08/19 03:18:09;;;;;;;12.30;10.90;;;;;;;20.72;73.95;99261.42;214736;1278;140211;-66
2022/08/19 03:23:16;;;;;;;10.90;9.50;;;;;;;20.79;73.82;99262.30;214371;1277;142479;-66
2022/08/19 03:28:20;;;;;;;13.60;11.60;;;;;;;20.88;73.63;99264.59;215142;1277;141607;-66
2022/08/19 03:33:27;;;;;;;13.20;10.40;;;;;;;20.93;73.48;99267.70;213238;1277;142620;-66
2022/08/19 03:38:33;;;;;;;13.50;12.10;;;;;;;20.95;73.37;99277.89;215082;1276;140518;-67
2022/08/19 03:43:39;;;;;;;11.70;10.50;;;;;;;21.01;73.26;99269.23;214349;1278;140760;-67
2022/08/19 03:48:44;;;;;;;18.60;10.10;;;;;;;21.09;73.15;99268.86;215014;1278;141057;-66
2022/08/19 03:53:49;;;;;;;11.20;9.50;;;;;;;21.21;73.00;99272.45;214838;1278;141342;-66
2022/08/19 03:58:56;;;;;;;14.70;10.20;;;;;;;21.32;72.87;99277.23;213065;1277;140163;-67
2022/08/19 04:04:01;;;;;;;17.20;10.00;;;;;;;21.47;72.72;99282.02;213552;1279;141104;-67
2022/08/19 04:09:09;;;;;;;13.60;11.20;;;;;;;21.58;72.43;99280.55;212835;1278;141946;-66
2022/08/19 04:14:18;;;;;;;11.30;10.10;;;;;;;21.69;72.19;99274.98;212900;1278;141065;-66
2022/08/19 04:19:25;;;;;;;12.30;10.70;;;;;;;21.76;71.96;99280.56;212680;1279;141746;-67
2022/08/19 04:24:30;;;;;;;9.70;8.80;;;;;;;21.88;71.70;99278.76;213492;1278;141386;-66
2022/08/19 04:29:34;;;;;;;11.10;8.50;;;;;;;22.01;71.44;99263.23;213672;1278;142080;-65
2022/08/19 04:34:38;;;;;;;17.40;10.20;;;;;;;22.11;71.17;99254.08;214062;1279;140582;-67
2022/08/19 04:45:30;;;;;;;12.10;8.70;;;;;;;22.38;70.52;99278.56;214093;1278;141709;-66
2022/08/19 04:50:46;;;;;;;11.80;9.90;;;;;;;22.45;70.21;99266.66;214051;1279;140079;-67
2022/08/19 04:55:51;;;;;;;11.50;10.30;;;;;;;22.49;70.03;99274.06;213034;1279;141846;-66
2022/08/19 05:00:59;;;;;;;13.10;9.80;;;;;;;22.53;69.84;99282.91;215012;1278;151281;-67
2022/08/19 05:06:10;;;;;;;16.10;10.10;;;;;;;22.61;69.53;99294.59;214548;1277;140162;-66
2022/08/19 05:11:24;;;;;;;8.50;7.70;;;;;;;22.72;69.33;99290.27;214789;1277;141107;-66
2022/08/19 05:16:29;;;;;;;9.40;8.40;;;;;;;22.86;69.10;99280.86;214727;1277;140639;-66
2022/08/19 05:26:56;;;;;;;9.10;8.20;;;;;;;23.17;68.41;99275.84;215423;1277;140538;-66
2022/08/19 05:32:04;;;;;;;12.40;11.10;;;;;;;23.45;67.92;99285.85;214878;1278;140661;-67
2022/08/19 05:37:11;;;;;;;11.30;10.30;;;;;;;24.32;66.78;99291.53;214934;1277;140387;-68
2022/08/19 05:42:16;;;;;;;11.80;10.50;;;;;;;25.26;64.97;99291.36;213484;1278;140864;-66
2022/08/19 05:47:22;;;;;;;9.40;8.50;;;;;;;25.27;64.88;99292.10;214354;1277;142426;-65
2022/08/19 05:52:28;;;;;;;14.60;9.10;;;;;;;25.35;64.17;99290.96;214016;1277;140484;-65
2022/08/19 05:57:34;;;;;;;14.20;9.50;;;;;;;25.38;63.64;99290.80;213015;1277;152628;-65
2022/08/19 06:02:38;;;;;;;10.40;9.40;;;;;;;25.39;63.44;99285.52;213750;1278;140325;-65
2022/08/19 06:07:43;;;;;;;14.90;10.70;;;;;;;25.34;63.20;99288.20;213278;1278;141201;-66
2022/08/19 06:12:48;;;;;;;11.60;10.40;;;;;;;25.28;63.35;99298.68;214087;1277;142004;-65
2022/08/19 06:17:53;;;;;;;11.80;9.40;;;;;;;25.23;63.26;99313.80;213866;1278;141674;-65
2022/08/19 06:22:58;;;;;;;12.20;8.70;;;;;;;25.24;63.42;99320.08;212903;1279;141374;-65
2022/08/19 06:28:03;;;;;;;10.00;9.00;;;;;;;25.38;63.53;99317.15;212753;1279;140668;-67
2022/08/19 06:33:24;;;;;;;19.10;11.30;;;;;;;25.44;63.02;99316.54;213320;1278;141301;-66
2022/08/19 06:38:30;;;;;;;11.10;10.00;;;;;;;25.43;62.99;99307.57;213882;1278;140114;-66
2022/08/19 06:43:41;;;;;;;14.50;11.10;;;;;;;25.42;62.49;99305.36;213444;1278;139809;-66
2022/08/19 06:48:47;;;;;;;11.60;10.30;;;;;;;25.49;63.01;99296.05;214377;1279;140233;-66
2022/08/19 06:53:53;;;;;;;18.20;10.60;;;;;;;25.96;63.11;99294.62;213302;1279;140208;-66
2022/08/19 06:58:59;;;;;;;9.80;8.00;;;;;;;26.64;62.90;99300.00;214278;1278;141568;-67
2022/08/19 07:04:06;;;;;;;13.00;10.20;;;;;;;27.21;61.21;99315.07;214486;1279;140653;-67
2022/08/19 07:09:16;;;;;;;10.20;9.30;;;;;;;27.71;60.65;99326.71;215271;1279;141307;-66
2022/08/19 07:14:26;;;;;;;11.00;10.00;;;;;;;28.33;59.38;99327.52;215118;1279;140591;-66
2022/08/19 07:19:31;;;;;;;11.20;8.40;;;;;;;28.72;58.18;99320.63;214977;1280;140077;-67
2022/08/19 07:24:36;;;;;;;10.60;9.40;;;;;;;28.86;57.89;99327.46;215327;1279;139924;-67
2022/08/19 07:29:53;;;;;;;10.20;9.30;;;;;;;29.22;56.87;99334.16;214668;1279;140719;-66
2022/08/19 07:35:00;;;;;;;12.80;11.10;;;;;;;29.33;56.18;99327.83;214144;1281;140398;-67
2022/08/19 07:40:06;;;;;;;17.20;10.20;;;;;;;29.26;56.07;99324.66;214747;1279;141273;-66
2022/08/19 07:45:10;;;;;;;11.20;9.40;;;;;;;29.04;55.51;99338.02;214330;1280;141894;-66
2022/08/19 07:50:17;;;;;;;10.70;9.80;;;;;;;29.13;55.98;99341.16;213707;1280;141592;-66
2022/08/19 07:55:27;;;;;;;10.60;9.60;;;;;;;29.39;55.75;99344.16;213663;1279;140975;-66
2022/08/19 08:00:48;;;;;;;10.80;9.90;;;;;;;29.73;55.61;99334.30;213669;1279;140676;-65
2022/08/19 08:11:17;;;;;;;10.30;9.40;;;;;;;30.47;54.82;99348.48;213207;1278;142300;-66
2022/08/19 08:16:25;;;;;;;9.30;8.30;;;;;;;30.69;54.45;99349.89;213195;1279;141642;-66
2022/08/19 08:21:30;;;;;;;9.70;8.80;;;;;;;31.00;54.17;99364.41;212869;1279;140770;-66
2022/08/19 08:26:34;;;;;;;10.80;9.00;;;;;;;31.07;52.90;99363.14;213476;1278;142462;-65
2022/08/19 08:31:42;;;;;;;11.90;9.30;;;;;;;31.19;52.85;99361.91;212685;1279;141064;-64
2022/08/19 08:36:46;;;;;;;11.30;10.30;;;;;;;31.37;52.46;99361.02;212671;1279;143376;-66
2022/08/19 08:42:06;;;;;;;12.70;8.90;;;;;;;31.43;52.03;99363.20;214850;1279;141303;-67
2022/08/19 08:47:22;;;;;;;11.40;10.30;;;;;;;31.63;51.64;99366.08;212722;1279;143397;-66
2022/08/19 08:52:30;;;;;;;10.20;9.20;;;;;;;31.76;51.82;99365.70;213960;1279;141046;-66
2022/08/19 08:57:42;;;;;;;18.90;11.40;;;;;;;31.86;51.13;99359.61;212817;1281;141802;-66
2022/08/19 09:02:47;;;;;;;10.30;9.30;;;;;;;32.04;51.26;99364.10;215048;1277;142439;-67
2022/08/19 09:08:04;;;;;;;9.30;8.40;;;;;;;32.32;50.73;99373.77;214515;1277;141241;-66
2022/08/19 09:13:08;;;;;;;;;;;;;;;32.11;49.37;99367.91;215335;1277;142351;-66
2022/08/19 09:18:12;;;;;;;10.60;8.10;;;;;;;32.11;49.87;99360.75;214548;1277;127426;-65
2022/08/19 09:23:23;;;;;;;9.90;9.00;;;;;;;32.20;49.46;99360.02;214643;1277;140341;-68
2022/08/19 09:28:31;;;;;;;10.60;9.40;;;;;;;32.37;49.51;99358.34;214716;1277;140530;-68
2022/08/19 09:33:35;;;;;;;10.00;9.20;;;;;;;32.74;49.93;99356.68;213827;1279;140354;-69
2022/08/19 09:38:41;;;;;;;11.20;9.70;;;;;;;32.85;48.74;99359.79;214527;1277;141343;-68
2022/08/19 09:43:51;;;;;;;13.20;9.60;;;;;;;33.07;48.57;99354.73;214560;1277;141712;-67
2022/08/19 09:49:00;;;;;;;9.20;8.30;;;;;;;33.13;47.39;99349.52;213576;1277;139780;-66
2022/08/19 09:54:09;;;;;;;11.50;9.20;;;;;;;33.39;47.89;99345.35;213297;1279;140675;-67
2022/08/19 09:59:14;;;;;;;11.00;7.60;;;;;;;33.39;47.00;99341.88;212879;1280;139960;-69
2022/08/19 10:04:30;;;;;;;10.20;7.50;;;;;;;33.44;46.97;99343.14;213678;1277;140030;-68
2022/08/19 10:09:47;;;;;;;8.90;7.90;;;;;;;33.56;46.81;99340.98;213212;1277;139688;-69
2022/08/19 10:14:53;;;;;;;;;;;;;;;33.64;46.68;99341.81;213537;1277;140732;-68
2022/08/19 10:19:58;;;;;;;8.90;8.10;;;;;;;33.59;46.05;99346.59;213196;1277;126907;-67
2022/08/19 10:25:04;;;;;;;9.00;7.60;;;;;;;33.64;45.91;99346.95;213142;1277;139808;-67
2022/08/19 10:30:09;;;;;;;19.70;9.00;;;;;;;33.62;45.45;99344.37;213431;1277;140390;-66
2022/08/19 10:35:17;;;;;;;11.90;7.50;;;;;;;33.58;45.18;99337.73;213428;1277;140102;-67
2022/08/19 10:40:28;;;;;;;19.50;9.30;;;;;;;33.56;44.94;99337.35;214258;1279;140490;-67
2022/08/19 10:45:31;;;;;;;10.30;7.80;;;;;;;33.57;44.98;99336.23;214104;1277;140389;-67
2022/08/19 11:01:20;;;;;;;9.60;7.70;;;;;;;33.82;43.87;99328.13;215605;1277;140931;-70
2022/08/19 11:06:25;;;;;;;8.90;8.00;;;;;;;33.83;43.69;99312.80;215665;1277;141101;-70
2022/08/19 11:11:32;;;;;;;12.60;8.70;;;;;;;33.98;44.15;99310.60;215129;1280;140270;-70
2022/08/19 11:16:42;;;;;;;9.40;7.20;;;;;;;34.09;43.18;99308.01;215446;1277;140168;-70
2022/08/19 11:21:47;;;;;;;;;;;;;;;34.05;43.32;99309.21;214548;1277;140078;-68
2022/08/19 11:26:58;;;;;;;11.60;6.50;;;;;;;34.24;43.28;99300.98;214510;1277;127187;-67
2022/08/19 11:32:08;;;;;;;15.40;6.50;;;;;;;34.29;42.74;99289.72;213694;1277;141136;-68
2022/08/19 11:37:12;;;;;;;14.50;8.90;;;;;;;34.40;42.74;99289.04;214592;1280;140255;-68
2022/08/19 11:47:40;;;;;;;9.60;7.70;;;;;;;34.10;42.18;99292.52;213812;1277;141507;-68
2022/08/19 11:52:44;;;;;;;9.30;6.50;;;;;;;34.15;42.12;99293.69;213006;1277;140852;-68
2022/08/19 11:57:48;;;;;;;8.10;7.20;;;;;;;34.16;41.78;99290.05;214168;1277;140032;-69
2022/08/19 12:02:52;;;;;;;14.60;7.30;;;;;;;34.10;41.77;99290.30;215105;1277;140845;-69
2022/08/19 12:07:56;;;;;;;13.90;7.90;;;;;;;34.11;41.43;99285.56;214680;1279;140956;-68
2022/08/19 12:12:59;;;;;;;13.70;8.00;;;;;;;33.91;41.28;99280.52;215174;1277;140013;-68
2022/08/19 12:18:09;;;;;;;9.20;7.60;;;;;;;33.70;41.31;99277.42;215071;1279;141800;-70
2022/08/19 12:23:13;;;;;;;7.90;7.10;;;;;;;33.72;41.22;99269.84;215147;1277;139891;-70
2022/08/19 12:28:22;;;;;;;8.40;7.60;;;;;;;33.59;41.26;99270.14;214107;1277;139544;-66
2022/08/19 12:33:28;;;;;;;7.60;6.00;;;;;;;33.54;41.33;99271.81;215623;1277;140592;-71
2022/08/19 12:38:34;;;;;;;8.90;6.30;;;;;;;33.66;40.88;99278.71;214892;1277;141309;-68
2022/08/19 12:43:40;;;;;;;8.90;5.30;;;;;;;33.60;40.55;99285.53;215624;1277;143347;-68
2022/08/19 12:48:45;;;;;;;12.90;6.30;;;;;;;33.48;40.19;99287.30;215673;1277;139391;-70
2022/08/19 12:53:49;;;;;;;9.80;4.70;;;;;;;33.27;39.64;99286.56;215829;1277;140482;-69
2022/08/19 12:58:53;;;;;;;16.70;5.90;;;;;;;33.33;39.46;99284.20;215472;1277;140462;-66
2022/08/19 13:03:57;;;;;;;6.20;5.20;;;;;;;33.63;39.49;99277.77;215409;1277;139963;-70
2022/08/19 13:09:00;;;;;;;7.00;5.40;;;;;;;33.92;39.42;99280.13;215411;1277;141069;-69
2022/08/19 13:14:04;;;;;;;8.40;6.20;;;;;;;34.01;39.05;99276.77;214916;1277;140798;-66
2022/08/19 13:19:10;;;;;;;12.00;6.70;;;;;;;33.74;38.72;99274.91;215692;1277;140008;-68
2022/08/19 13:24:14;;;;;;;11.80;6.40;;;;;;;33.53;39.06;99278.06;215425;1277;141497;-69
2022/08/19 13:34:46;;;;;;;11.40;6.20;;;;;;;33.20;39.47;99277.26;214889;1277;140700;-71
2022/08/19 13:39:50;;;;;;;14.90;5.90;;;;;;;33.03;39.96;99274.51;215432;1277;141269;-68
2022/08/19 13:44:54;;;;;;;12.20;6.60;;;;;;;33.04;40.54;99270.09;213944;1278;140161;-68
2022/08/19 13:49:57;;;;;;;8.70;7.00;;;;;;;33.08;40.71;99261.80;213279;1277;1633069;-67
2022/08/19 13:55:01;;;;;;;12.10;6.40;;;;;;;33.27;40.59;99255.39;214153;1277;142009;-68
2022/08/19 14:00:10;;;;;;;10.10;6.10;;;;;;;33.17;39.65;99253.41;214758;1277;140587;-68
2022/08/19 14:05:16;;;;;;;11.40;5.70;;;;;;;33.12;39.76;99256.58;214251;1277;139874;-67
2022/08/19 14:10:20;;;;;;;9.00;6.40;;;;;;;33.06;40.24;99257.86;215565;1277;140246;-68
2022/08/19 14:15:25;;;;;;;8.20;6.20;;;;;;;33.04;40.17;99267.47;214502;1277;141982;-68
2022/08/19 14:20:29;;;;;;;10.90;6.80;;;;;;;33.03;40.13;99271.98;214543;1277;140068;-68
2022/08/19 14:25:33;;;;;;;12.20;7.10;;;;;;;33.00;40.11;99275.23;213100;1277;140371;-67
2022/08/19 14:30:37;;;;;;;7.80;7.00;;;;;;;33.16;40.46;99265.73;215092;1277;140463;-67
2022/08/19 14:35:44;;;;;;;6.80;6.20;;;;;;;33.15;40.52;99259.65;215372;1277;140742;-68
2022/08/19 14:40:49;;;;;;;9.70;6.30;;;;;;;32.90;40.51;99249.52;214936;1277;139466;-68
2022/08/19 14:45:53;;;;;;;12.50;7.30;;;;;;;32.68;41.24;99251.95;214578;1277;140642;-69
2022/08/19 14:50:56;;;;;;;20.70;7.40;;;;;;;32.47;41.97;99258.34;213538;1277;141236;-68
2022/08/19 14:56:01;;;;;;;10.60;8.00;;;;;;;32.37;43.02;99257.86;215233;1277;141375;-68
2022/08/19 15:01:04;;;;;;;13.60;7.80;;;;;;;32.34;44.32;99253.67;215317;1277;141402;-67
2022/08/19 15:06:09;;;;;;;11.40;6.50;;;;;;;32.25;45.27;99256.95;215697;1277;140506;-69
2022/08/19 15:11:19;;;;;;;15.50;7.70;;;;;;;32.13;45.92;99256.45;215457;1277;141509;-68
2022/08/19 15:16:25;;;;;;;22.60;7.60;;;;;;;31.97;47.19;99257.11;215768;1277;140649;-70
2022/08/19 15:21:29;;;;;;;10.80;7.90;;;;;;;31.80;47.52;99258.00;215726;1277;141893;-71
2022/08/19 15:26:33;;;;;;;11.60;8.60;;;;;;;31.70;47.68;99258.45;215599;1277;142523;-67
2022/08/19 15:31:37;;;;;;;16.60;9.10;;;;;;;31.66;47.01;99248.02;212529;1277;141629;-66
2022/08/19 15:36:41;;;;;;;20.30;10.30;;;;;;;31.69;47.52;99239.46;215124;1277;141159;-67
2022/08/19 15:41:45;;;;;;;25.70;10.00;;;;;;;31.71;47.58;99235.07;213041;1277;140554;-66
2022/08/19 15:46:49;;;;;;;17.50;9.70;;;;;;;31.69;47.58;99232.07;213357;1277;141147;-67
2022/08/19 15:51:56;;;;;;;10.00;8.20;;;;;;;31.66;49.31;99228.02;214165;1278;141422;-66
2022/08/19 16:07:55;;;;;;;52.10;22.90;;;;;;;31.44;50.84;99233.27;214731;1277;141127;-67
2022/08/19 16:13:04;;;;;;;27.70;11.60;;;;;;;31.28;51.07;99232.63;214456;1277;140098;-66
2022/08/19 16:18:09;;;;;;;15.50;9.00;;;;;;;31.13;51.60;99225.70;215116;1277;140540;-69
2022/08/19 16:23:12;;;;;;;11.20;9.50;;;;;;;30.97;52.03;99220.31;214187;1277;141683;-66
2022/08/19 16:28:16;;;;;;;18.90;10.00;;;;;;;30.85;52.76;99212.38;214415;1278;140510;-67
2022/08/19 16:33:20;;;;;;;15.90;10.90;;;;;;;30.73;53.42;99207.10;215534;1276;142158;-69
2022/08/19 16:38:26;;;;;;;15.60;10.20;;;;;;;30.57;53.60;99199.20;214951;1279;140331;-68
2022/08/19 16:43:30;;;;;;;16.10;10.30;;;;;;;30.48;53.87;99208.70;213020;1277;140029;-69
2022/08/19 16:48:38;;;;;;;12.70;10.20;;;;;;;30.36;54.80;99214.08;214883;1277;139910;-67
2022/08/19 16:53:44;;;;;;;16.90;10.70;;;;;;;30.22;55.60;99226.38;215226;1277;139896;-67
2022/08/19 16:58:49;;;;;;;21.50;10.10;;;;;;;30.07;56.19;99237.85;215387;1277;140806;-68
2022/08/19 17:03:54;;;;;;;16.70;11.10;;;;;;;29.97;56.66;99246.98;214972;1278;141403;-67
2022/08/19 17:09:00;;;;;;;12.50;11.00;;;;;;;29.85;57.44;99256.03;215232;1278;140206;-66
2022/08/19 17:14:07;;;;;;;13.60;10.80;;;;;;;29.71;57.68;99251.77;215377;1278;140276;-71
2022/08/19 17:19:11;;;;;;;13.90;10.20;;;;;;;29.56;57.71;99257.33;215268;1278;140140;-70
2022/08/19 17:24:16;;;;;;;25.20;10.20;;;;;;;29.40;58.12;99269.11;214662;1277;141131;-67
2022/08/19 17:29:21;;;;;;;19.00;11.10;;;;;;;29.11;58.53;99266.95;215376;1277;141378;-70
2022/08/19 17:34:25;;;;;;;12.50;9.80;;;;;;;28.83;59.25;99269.48;213575;1278;140489;-67
2022/08/19 17:39:30;;;;;;;20.00;11.80;;;;;;;28.71;59.86;99267.64;213993;1279;141523;-68
2022/08/19 17:44:43;;;;;;;12.60;11.30;;;;;;;28.60;60.06;99276.61;214692;1278;140972;-69
2022/08/19 17:49:53;;;;;;;14.90;11.80;;;;;;;28.45;60.33;99273.54;214911;1278;140179;-68
2022/08/19 17:54:57;;;;;;;15.40;11.70;;;;;;;28.25;60.56;99270.42;214535;1279;140467;-68
2022/08/19 18:00:01;;;;;;;20.50;12.50;;;;;;;28.15;61.10;99276.42;213042;1277;139852;-68
2022/08/19 18:05:12;;;;;;;20.60;13.10;;;;;;;28.07;61.57;99280.50;214234;1277;140511;-69
2022/08/19 18:10:16;;;;;;;15.50;13.20;;;;;;;27.95;61.51;99276.87;214763;1277;142834;-69
2022/08/19 18:15:21;;;;;;;18.00;12.30;;;;;;;27.76;61.69;99286.06;214870;1277;139911;-66
2022/08/19 18:20:24;;;;;;;16.70;12.00;;;;;;;27.61;62.15;99288.78;214618;1277;140991;-69
2022/08/19 18:25:28;;;;;;;18.90;13.50;;;;;;;27.38;62.29;99280.61;215281;1277;142106;-66
2022/08/19 18:30:33;;;;;;;28.00;13.50;;;;;;;27.20;62.86;99275.58;213492;1277;140266;-68
2022/08/19 18:35:38;;;;;;;;;;;;;;;27.10;63.40;99266.45;214130;1277;140852;-67
2022/08/19 18:51:47;;;;;;;16.20;13.30;;;;;;;26.95;64.11;99270.77;213955;1283;141026;-67
2022/08/19 18:56:54;;;;;;;23.20;13.30;;;;;;;26.95;64.00;99272.92;214815;1279;141655;-68
2022/08/19 19:02:00;;;;;;;16.70;13.20;;;;;;;26.99;63.62;99268.45;214652;1277;141277;-70
2022/08/19 19:07:05;;;;;;;;;;;;;;;27.02;63.74;99263.14;215429;1277;140453;-68
2022/08/19 19:12:12;;;;;;;27.90;15.60;;;;;;;26.99;63.67;99277.44;216255;1277;126246;-66
2022/08/19 19:17:24;;;;;;;26.20;14.90;;;;;;;26.87;64.38;99278.91;215553;1276;141514;-68
2022/08/19 19:22:30;;;;;;;18.60;14.90;;;;;;;26.56;64.82;99290.80;215352;1277;142498;-68
2022/08/19 19:27:34;;;;;;;23.80;15.80;;;;;;;26.23;65.70;99333.41;215321;1277;143081;-68
2022/08/19 19:32:39;;;;;;;14.00;12.40;;;;;;;26.01;66.14;99375.38;214781;1278;140991;-67
2022/08/19 19:37:51;;;;;;;19.30;13.50;;;;;;;25.77;66.44;99377.73;215336;1278;141391;-69
2022/08/19 19:42:55;;;;;;;26.30;12.10;;;;;;;25.49;66.81;99355.46;215232;1278;143278;-68
2022/08/19 19:48:00;;;;;;;41.30;11.70;;;;;;;25.13;65.85;99344.19;214663;1277;141548;-67
2022/08/19 19:53:05;;;;;;;18.20;10.20;;;;;;;24.83;66.43;99362.27;214283;1278;140672;-66
2022/08/19 19:58:09;;;;;;;32.20;10.80;;;;;;;24.68;66.76;99377.87;214956;1278;142267;-66
2022/08/19 20:03:15;;;;;;;20.50;10.10;;;;;;;24.50;67.20;99376.80;212802;1277;143168;-66
2022/08/19 20:13:46;;;;;;;25.00;12.00;;;;;;;24.19;68.50;99379.79;213941;1277;141357;-66
2022/08/19 20:18:51;;;;;;;16.70;10.50;;;;;;;23.95;68.62;99383.17;214598;1278;141242;-67
2022/08/19 20:24:03;;;;;;;24.80;11.20;;;;;;;23.83;69.56;99381.48;214779;1277;141362;-66
2022/08/19 20:29:14;;;;;;;18.70;10.80;;;;;;;23.70;70.09;99376.30;214762;1278;140669;-66
2022/08/19 20:34:40;;;;;;;30.00;12.20;;;;;;;23.61;70.72;99377.40;214655;1277;140797;-66
2022/08/19 20:39:45;;;;;;;26.60;12.50;;;;;;;23.67;71.29;99371.35;214665;1278;142645;-66
2022/08/19 20:44:50;;;;;;;23.00;11.70;;;;;;;23.74;71.53;99373.81;214444;1277;144962;-69
2022/08/19 20:49:54;;;;;;;21.90;11.40;;;;;;;23.73;71.72;99370.27;214521;1278;140717;-68
2022/08/19 20:55:00;;;;;;;22.20;12.00;;;;;;;23.70;72.00;99392.15;214015;1278;144448;-67
2022/08/19 21:00:09;;;;;;;12.90;8.00;;;;;;;23.64;72.52;99447.83;213430;1277;143095;-67
2022/08/19 21:05:13;;;;;;;24.60;11.10;;;;;;;23.57;72.47;99462.92;214942;1277;142175;-67
2022/08/19 21:10:21;;;;;;;23.10;10.70;;;;;;;23.51;72.65;99480.11;215152;1278;161883;-68
2022/08/19 21:15:25;;;;;;;8.30;6.10;;;;;;;23.49;72.54;99506.03;215148;1279;141034;-65
2022/08/19 21:20:30;;;;;;;17.20;10.50;;;;;;;23.28;72.51;99517.83;215327;1278;140320;-71
2022/08/19 21:25:34;;;;;;;21.60;9.60;;;;;;;23.05;72.97;99517.59;215314;1277;142848;-69
2022/08/19 21:30:40;;;;;;;16.10;9.90;;;;;;;22.99;73.29;99516.73;215202;1277;143033;-68
2022/08/19 21:35:44;;;;;;;19.20;9.50;;;;;;;23.01;73.43;99525.02;213059;1278;141013;-66
2022/08/19 21:40:48;;;;;;;19.70;9.30;;;;;;;22.98;73.72;99498.73;215394;1277;142643;-68
2022/08/19 21:45:53;;;;;;;17.70;8.70;;;;;;;23.04;73.99;99462.16;213183;1279;141841;-69
2022/08/19 21:50:58;;;;;;;12.40;9.70;;;;;;;23.01;74.10;99449.86;214987;1278;141918;-72
2022/08/19 21:56:06;;;;;;;16.20;9.30;;;;;;;22.98;74.27;99457.64;215058;1278;141536;-68
2022/08/19 22:01:11;;;;;;;11.00;7.90;;;;;;;22.98;74.27;99447.18;214367;1277;142053;-69
2022/08/19 22:06:16;;;;;;;15.60;9.00;;;;;;;22.85;74.25;99451.91;213788;1278;141048;-67
2022/08/19 22:11:24;;;;;;;10.90;9.40;;;;;;;22.74;74.56;99441.29;214498;1278;140474;-68
2022/08/19 22:16:28;;;;;;;17.40;9.00;;;;;;;22.65;74.57;99430.80;214701;1278;142583;-68
2022/08/19 22:21:33;;;;;;;10.30;9.30;;;;;;;22.60;75.13;99425.95;214275;1277;140948;-69
2022/08/19 22:26:43;;;;;;;14.60;9.60;;;;;;;22.57;75.14;99416.80;214714;1278;141956;-68
2022/08/19 22:31:48;;;;;;;17.30;9.30;;;;;;;22.60;75.71;99415.69;212850;1278;141499;-67
2022/08/19 22:37:01;;;;;;;16.50;8.90;;;;;;;22.67;75.86;99418.57;215094;1277;142487;-69
2022/08/19 22:42:06;;;;;;;11.00;9.60;;;;;;;22.75;75.83;99417.56;212935;1278;142352;-68
2022/08/19 22:47:11;;;;;;;17.10;9.90;;;;;;;22.79;75.99;99425.86;214392;1278;141167;-68
2022/08/19 22:52:19;;;;;;;11.80;10.50;;;;;;;22.81;75.87;99428.78;215243;1278;142027;-69
2022/08/19 22:57:23;;;;;;;16.90;11.50;;;;;;;22.84;76.15;99427.88;214452;1278;141812;-68
2022/08/19 23:02:37;;;;;;;16.20;10.70;;;;;;;22.90;76.09;99425.09;214391;1278;147395;-68
2022/08/19 23:07:55;;;;;;;20.30;11.60;;;;;;;22.92;76.08;99419.49;215073;1278;142189;-68
2022/08/19 23:13:00;;;;;;;16.30;9.90;;;;;;;22.90;75.86;99418.64;215423;1278;141512;-69
2022/08/19 23:18:05;;;;;;;12.60;10.00;;;;;;;22.67;75.59;99435.16;215502;1278;141094;-70
2022/08/19 23:23:17;;;;;;;15.60;10.60;;;;;;;22.62;76.26;99435.40;215443;1278;142681;-67
2022/08/19 23:33:46;;;;;;;11.80;10.00;;;;;;;22.83;76.81;99442.75;214863;1278;142139;-69
2022/08/19 23:38:56;;;;;;;17.00;11.30;;;;;;;22.81;76.33;99466.23;215052;1277;141291;-69
2022/08/19 23:44:01;;;;;;;16.10;10.40;;;;;;;22.80;76.60;99498.50;214766;1278;142018;-70
2022/08/19 23:49:07;;;;;;;13.30;9.90;;;;;;;22.74;76.41;99520.10;212942;1277;141027;-67
2022/08/19 23:54:11;;;;;;;14.40;10.80;;;;;;;22.64;77.04;99531.68;214368;1277;141549;-69
2022/08/19 23:59:14;;;;;;;9.70;8.80;;;;;;;22.70;76.92;99548.09;214344;1277;142880;-68
